createdAt,value
2023-03-17T00:01:56.946Z,5.10
2023-03-17T00:04:27.523Z,5.20
2023-03-17T00:06:56.713Z,5.10
2023-03-17T00:09:23.848Z,5.00
2023-03-17T00:11:50.984Z,5.00
2023-03-17T00:14:20.114Z,5.10
2023-03-17T00:16:52.786Z,5.00
2023-03-17T00:19:35.823Z,5.00
2023-03-17T00:22:06.751Z,4.90
2023-03-17T00:24:34.313Z,5.00
2023-03-17T00:27:01.699Z,4.90
2023-03-17T00:29:30.045Z,5.00
2023-03-17T00:31:58.126Z,4.90
2023-03-17T00:34:25.190Z,5.00
2023-03-17T00:36:53.125Z,4.90
2023-03-17T00:39:20.659Z,4.90
2023-03-17T00:44:14.614Z,4.80
2023-03-17T00:46:42.242Z,4.70
2023-03-17T00:49:20.475Z,4.90
2023-03-17T00:51:49.900Z,4.80
2023-03-17T00:54:20.948Z,4.70
2023-03-17T00:56:52.000Z,4.70
2023-03-17T00:59:34.782Z,4.80
2023-03-17T01:02:01.804Z,4.70
2023-03-17T01:04:28.799Z,4.80
2023-03-17T01:06:55.876Z,4.80
2023-03-17T01:09:27.589Z,4.70
2023-03-17T01:11:55.932Z,4.60
2023-03-17T01:14:25.110Z,4.70
2023-03-17T01:16:55.183Z,4.70
2023-03-17T01:19:22.484Z,4.60
2023-03-17T01:21:49.373Z,4.60
2023-03-17T01:24:16.309Z,4.70
2023-03-17T01:26:43.346Z,4.60
2023-03-17T01:29:10.362Z,4.60
2023-03-17T01:31:37.451Z,4.60
2023-03-17T01:34:06.071Z,4.60
2023-03-17T01:36:34.168Z,4.60
2023-03-17T01:39:01.433Z,4.60
2023-03-17T01:41:28.480Z,4.50
2023-03-17T01:43:55.379Z,4.50
2023-03-17T01:46:27.603Z,4.50
2023-03-17T01:49:35.704Z,4.50
2023-03-17T01:52:16.348Z,4.40
2023-03-17T01:54:55.672Z,4.40
2023-03-17T01:57:32.924Z,4.40
2023-03-17T02:00:18.144Z,4.40
2023-03-17T02:02:51.560Z,4.50
2023-03-17T02:05:27.479Z,4.40
2023-03-17T02:07:56.125Z,4.40
2023-03-17T02:10:29.229Z,4.40
2023-03-17T02:13:05.571Z,4.30
2023-03-17T02:15:50.126Z,4.30
2023-03-17T02:18:22.556Z,4.40
2023-03-17T02:20:49.319Z,4.30
2023-03-17T02:23:22.908Z,4.30
2023-03-17T02:25:53.771Z,4.30
2023-03-17T02:28:32.101Z,4.30
2023-03-17T02:30:59.131Z,4.30
2023-03-17T02:33:27.590Z,4.30
2023-03-17T02:35:54.868Z,4.30
2023-03-17T02:38:22.132Z,4.20
2023-03-17T02:40:49.204Z,4.20
2023-03-17T02:43:16.685Z,4.20
2023-03-17T02:45:43.638Z,4.20
2023-03-17T02:48:10.939Z,4.20
2023-03-17T02:50:37.864Z,4.30
2023-03-17T02:53:04.935Z,4.30
2023-03-17T02:55:32.049Z,4.30
2023-03-17T02:57:59.022Z,4.20
2023-03-17T03:00:26.587Z,4.20
2023-03-17T03:02:53.629Z,4.20
2023-03-17T03:05:21.068Z,4.20
2023-03-17T03:07:48.250Z,4.30
2023-03-17T03:10:15.620Z,4.20
2023-03-17T03:12:42.618Z,4.20
2023-03-17T03:15:10.522Z,4.20
2023-03-17T03:17:38.974Z,4.20
2023-03-17T03:20:07.245Z,4.30
2023-03-17T03:22:34.338Z,4.30
2023-03-17T03:25:01.377Z,4.20
2023-03-17T03:27:28.338Z,4.20
2023-03-17T03:29:55.702Z,4.20
2023-03-17T03:32:22.960Z,4.20
2023-03-17T03:34:50.196Z,4.20
2023-03-17T03:37:17.281Z,4.20
2023-03-17T03:39:44.734Z,4.20
2023-03-17T03:42:12.079Z,4.30
2023-03-17T03:44:39.268Z,4.20
2023-03-17T03:47:06.623Z,4.30
2023-03-17T03:49:33.476Z,4.20
2023-03-17T03:52:00.596Z,4.20
2023-03-17T03:54:27.462Z,4.30
2023-03-17T03:56:54.374Z,4.20
2023-03-17T03:59:21.706Z,4.20
2023-03-17T04:01:48.596Z,4.20
2023-03-17T04:04:16.182Z,4.30
2023-03-17T04:06:44.455Z,4.30
2023-03-17T04:09:11.404Z,4.20
2023-03-17T04:11:38.398Z,4.40
2023-03-17T04:14:06.573Z,4.30
2023-03-17T04:16:33.697Z,4.20
2023-03-17T04:19:01.600Z,4.10
2023-03-17T04:21:28.777Z,4.20
2023-03-17T04:23:56.226Z,4.20
2023-03-17T04:26:23.521Z,4.30
2023-03-17T04:28:50.600Z,4.20
2023-03-17T04:31:17.660Z,4.20
2023-03-17T04:33:44.650Z,4.10
2023-03-17T04:36:23.968Z,4.10
2023-03-17T04:38:51.649Z,4.10
2023-03-17T04:41:21.128Z,4.10
2023-03-17T04:43:48.308Z,4.10
2023-03-17T04:46:16.202Z,4.20
2023-03-17T04:48:43.302Z,4.20
2023-03-17T04:51:11.866Z,4.20
2023-03-17T04:53:39.958Z,4.10
2023-03-17T04:56:07.335Z,4.10
2023-03-17T04:58:37.098Z,4.10
2023-03-17T05:01:05.158Z,4.10
2023-03-17T05:03:33.189Z,4.10
2023-03-17T05:06:02.720Z,4.10
2023-03-17T05:08:30.132Z,4.20
2023-03-17T05:10:58.586Z,4.10
2023-03-17T05:13:27.637Z,4.20
2023-03-17T05:15:59.654Z,4.10
2023-03-17T05:18:27.318Z,4.20
2023-03-17T05:20:54.828Z,4.20
2023-03-17T05:23:23.050Z,4.20
2023-03-17T05:25:50.929Z,4.20
2023-03-17T05:28:21.786Z,4.10
2023-03-17T05:30:50.870Z,4.10
2023-03-17T05:33:18.271Z,4.20
2023-03-17T05:35:46.352Z,4.20
2023-03-17T05:38:17.511Z,4.10
2023-03-17T05:40:45.584Z,4.20
2023-03-17T05:43:12.682Z,4.20
2023-03-17T05:45:46.427Z,4.30
2023-03-17T05:48:13.522Z,4.20
2023-03-17T05:50:43.744Z,4.20
2023-03-17T05:53:11.473Z,4.20
2023-03-17T05:55:38.641Z,4.20
2023-03-17T05:58:06.499Z,4.30
2023-03-17T06:00:39.778Z,4.30
2023-03-17T06:03:07.758Z,4.30
2023-03-17T06:05:35.831Z,4.30
2023-03-17T06:08:02.860Z,4.30
2023-03-17T06:10:30.086Z,4.40
2023-03-17T06:13:02.756Z,4.40
2023-03-17T06:15:31.919Z,4.40
2023-03-17T06:17:59.480Z,4.40
2023-03-17T06:20:26.392Z,4.30
2023-03-17T06:23:03.764Z,4.30
2023-03-17T06:25:34.141Z,4.30
2023-03-17T06:28:03.608Z,4.30
2023-03-17T06:30:34.176Z,4.30
2023-03-17T06:33:04.059Z,4.30
2023-03-17T06:35:32.637Z,4.30
2023-03-17T06:38:00.856Z,4.30
2023-03-17T06:40:28.466Z,4.40
2023-03-17T06:42:55.367Z,4.50
2023-03-17T06:45:26.145Z,4.40
2023-03-17T06:47:53.430Z,4.40
2023-03-17T06:50:21.441Z,4.50
2023-03-17T06:52:48.498Z,4.60
2023-03-17T06:55:15.865Z,4.60
2023-03-17T06:57:43.516Z,4.60
2023-03-17T07:00:13.982Z,4.70
2023-03-17T07:02:42.175Z,4.60
2023-03-17T07:05:09.774Z,4.60
2023-03-17T07:07:36.731Z,4.70
2023-03-17T07:10:05.849Z,4.70
2023-03-17T07:12:33.126Z,4.70
2023-03-17T07:15:00.881Z,4.70
2023-03-17T07:17:28.079Z,4.70
2023-03-17T07:19:55.228Z,4.80
2023-03-17T07:22:25.112Z,5.00
2023-03-17T07:24:52.528Z,4.80
2023-03-17T07:27:22.694Z,5.10
2023-03-17T07:29:49.959Z,5.00
2023-03-17T07:32:17.081Z,5.10
2023-03-17T07:34:44.122Z,5.10
2023-03-17T07:37:12.153Z,5.20
2023-03-17T07:39:40.004Z,5.20
2023-03-17T07:42:07.026Z,5.30
2023-03-17T07:44:34.372Z,5.30
2023-03-17T07:47:01.529Z,5.30
2023-03-17T07:49:40.812Z,5.30
2023-03-17T07:52:11.349Z,5.30
2023-03-17T07:54:42.244Z,5.40
2023-03-17T07:57:10.834Z,5.40
2023-03-17T07:59:40.021Z,5.70
2023-03-17T08:02:07.402Z,5.70
2023-03-17T08:04:36.257Z,5.70
2023-03-17T08:07:06.199Z,5.80
2023-03-17T08:09:33.511Z,5.90
2023-03-17T08:12:00.552Z,5.70
2023-03-17T08:14:27.513Z,5.90
2023-03-17T08:16:54.684Z,5.90
2023-03-17T08:19:23.366Z,5.90
2023-03-17T08:21:51.347Z,6.10
2023-03-17T08:24:18.600Z,6.20
2023-03-17T08:26:50.075Z,6.00
2023-03-17T08:29:17.006Z,6.10
2023-03-17T08:31:46.546Z,6.20
2023-03-17T08:34:14.937Z,6.30
2023-03-17T08:36:42.289Z,6.20
2023-03-17T08:39:10.460Z,6.40
2023-03-17T08:41:38.606Z,6.50
2023-03-17T08:44:06.010Z,6.60
2023-03-17T08:46:33.381Z,6.60
2023-03-17T08:49:03.273Z,6.60
2023-03-17T08:51:35.922Z,6.70
2023-03-17T08:54:05.874Z,6.80
2023-03-17T08:56:32.888Z,6.80
2023-03-17T08:59:00.574Z,6.80
2023-03-17T09:01:28.693Z,6.80
2023-03-17T09:03:56.232Z,7.00
2023-03-17T09:06:25.526Z,7.00
2023-03-17T09:08:55.765Z,7.20
2023-03-17T09:11:31.498Z,7.20
2023-03-17T09:13:59.256Z,7.40
2023-03-17T09:16:28.669Z,7.60
2023-03-17T09:18:55.787Z,7.60
2023-03-17T09:21:23.569Z,7.60
2023-03-17T09:23:51.914Z,7.70
2023-03-17T09:26:20.104Z,7.80
2023-03-17T09:28:47.427Z,7.90
2023-03-17T09:31:14.552Z,8.10
2023-03-17T09:33:42.504Z,8.00
2023-03-17T09:36:11.019Z,8.10
2023-03-17T09:38:39.151Z,8.20
2023-03-17T09:41:48.965Z,8.40
2023-03-17T09:45:01.722Z,8.50
2023-03-17T09:48:03.070Z,9.10
2023-03-17T09:50:50.956Z,9.10
2023-03-17T09:53:27.657Z,9.70
2023-03-17T09:56:00.476Z,9.50
2023-03-17T09:58:33.940Z,9.80
2023-03-17T10:01:05.536Z,9.80
2023-03-17T10:03:34.200Z,9.90
2023-03-17T10:06:46.788Z,9.80
2023-03-17T10:09:41.847Z,10.00
2023-03-17T10:13:10.200Z,10.20
2023-03-17T10:16:01.435Z,10.10
2023-03-17T10:18:43.230Z,10.80
2023-03-17T10:21:18.343Z,10.60
2023-03-17T10:23:46.479Z,10.40
2023-03-17T10:26:49.458Z,10.50
2023-03-17T10:29:22.706Z,10.60
2023-03-17T10:31:57.061Z,10.70
2023-03-17T10:34:36.647Z,10.80
2023-03-17T10:37:17.715Z,10.70
2023-03-17T10:39:57.824Z,10.70
2023-03-17T10:42:33.766Z,10.90
2023-03-17T10:45:33.828Z,11.00
2023-03-17T10:48:07.760Z,10.90
2023-03-17T10:50:39.910Z,10.90
2023-03-17T10:53:28.332Z,10.90
2023-03-17T10:56:20.267Z,11.10
2023-03-17T10:58:54.980Z,11.00
2023-03-17T11:01:38.481Z,11.30
2023-03-17T11:04:42.526Z,11.40
2023-03-17T11:07:40.407Z,11.50
2023-03-17T11:10:27.460Z,11.50
2023-03-17T11:13:02.112Z,11.60
2023-03-17T11:16:13.663Z,11.90
2023-03-17T11:18:44.681Z,12.00
2023-03-17T11:21:31.698Z,12.20
2023-03-17T11:24:14.776Z,11.90
2023-03-17T11:26:44.363Z,12.20
2023-03-17T11:29:57.663Z,12.00
2023-03-17T11:32:51.476Z,12.50
2023-03-17T11:36:11.919Z,12.50
2023-03-17T11:39:09.874Z,12.50
2023-03-17T11:41:47.445Z,12.40
2023-03-17T11:44:58.048Z,12.60
2023-03-17T11:47:57.329Z,12.80
2023-03-17T11:51:03.287Z,12.60
2023-03-17T11:54:24.944Z,12.80
2023-03-17T11:56:59.935Z,12.90
2023-03-17T12:02:58.660Z,12.50
2023-03-17T12:05:30.121Z,12.70
2023-03-17T12:08:03.282Z,12.40
2023-03-17T12:10:52.587Z,12.70
2023-03-17T12:13:58.548Z,12.90
2023-03-17T12:17:00.960Z,12.80
2023-03-17T12:29:49.813Z,13.10
2023-03-17T12:32:42.102Z,13.30
2023-03-17T12:35:35.077Z,13.30
2023-03-17T12:38:16.767Z,13.20
2023-03-17T12:41:19.828Z,13.10
2023-03-17T12:44:48.013Z,13.20
2023-03-17T12:47:52.467Z,13.10
2023-03-17T12:53:46.603Z,13.20
2023-03-17T12:56:35.300Z,13.10
2023-03-17T12:59:16.452Z,13.20
2023-03-17T13:02:24.869Z,13.10
2023-03-17T13:05:01.919Z,13.20
2023-03-17T13:07:51.294Z,13.30
2023-03-17T13:10:44.319Z,13.10
2023-03-17T13:13:46.053Z,12.90
2023-03-17T13:16:41.161Z,13.20
2023-03-17T13:19:29.676Z,13.30
2023-03-17T13:22:05.677Z,13.40
2023-03-17T13:24:54.553Z,13.50
2023-03-17T13:27:33.909Z,13.40
2023-03-17T13:30:43.727Z,13.60
2023-03-17T13:33:11.055Z,13.50
2023-03-17T13:36:14.899Z,13.50
2023-03-17T13:39:04.898Z,13.30
2023-03-17T13:42:29.025Z,13.30
2023-03-17T13:45:44.519Z,13.40
2023-03-17T13:48:40.453Z,13.60
2023-03-17T13:51:27.477Z,13.50
2023-03-17T13:54:20.506Z,13.40
2023-03-17T13:56:52.927Z,13.60
2023-03-17T13:59:39.388Z,13.70
2023-03-17T14:02:25.611Z,14.00
2023-03-17T14:05:27.506Z,13.80
2023-03-17T14:07:59.793Z,13.90
2023-03-17T14:10:32.814Z,13.70
2023-03-17T14:13:25.538Z,14.10
2023-03-17T14:16:20.994Z,13.90
2023-03-17T14:19:08.435Z,13.80
2023-03-17T14:21:36.558Z,13.90
2023-03-17T14:24:30.080Z,14.20
2023-03-17T14:26:57.601Z,14.20
2023-03-17T14:29:45.905Z,13.90
2023-03-17T14:32:21.823Z,13.70
2023-03-17T14:35:00.320Z,13.60
2023-03-17T14:37:34.656Z,13.60
2023-03-17T14:40:02.086Z,13.80
2023-03-17T14:42:48.437Z,13.80
2023-03-17T14:46:15.418Z,13.80
2023-03-17T14:48:59.579Z,13.70
2023-03-17T14:51:47.808Z,13.70
2023-03-17T14:54:45.096Z,13.80
2023-03-17T14:57:47.559Z,13.90
2023-03-17T15:00:58.212Z,13.80
2023-03-17T15:03:33.480Z,13.80
2023-03-17T15:06:36.819Z,13.70
2023-03-17T15:09:29.994Z,13.70
2023-03-17T15:12:29.855Z,13.70
2023-03-17T15:15:23.974Z,13.70
2023-03-17T15:17:57.216Z,13.70
2023-03-17T15:20:36.759Z,13.60
2023-03-17T15:23:20.845Z,13.70
2023-03-17T15:26:03.434Z,13.70
2023-03-17T15:28:37.759Z,13.70
2023-03-17T15:31:23.542Z,13.70
2023-03-17T15:34:00.970Z,13.60
2023-03-17T15:36:33.183Z,13.70
2023-03-17T15:39:09.816Z,13.70
2023-03-17T15:41:42.611Z,13.70
2023-03-17T15:44:10.852Z,13.80
2023-03-17T15:46:38.065Z,13.60
2023-03-17T15:49:12.615Z,13.50
2023-03-17T15:51:40.344Z,13.50
2023-03-17T15:54:15.498Z,13.50
2023-03-17T15:56:43.517Z,13.50
2023-03-17T15:59:12.102Z,13.50
2023-03-17T16:01:42.786Z,13.50
2023-03-17T16:04:12.876Z,13.40
2023-03-17T16:06:40.153Z,13.40
2023-03-17T16:09:36.855Z,13.40
2023-03-17T16:12:05.298Z,13.30
2023-03-17T16:14:35.882Z,13.30
2023-03-17T16:17:14.888Z,13.30
2023-03-17T16:19:48.890Z,13.30
2023-03-17T16:22:44.147Z,13.30
2023-03-17T16:25:32.045Z,13.30
2023-03-17T16:28:21.066Z,13.30
2023-03-17T16:31:23.125Z,13.20
2023-03-17T16:33:54.391Z,13.30
2023-03-17T16:36:28.960Z,13.20
2023-03-17T16:39:01.551Z,13.20
2023-03-17T16:41:35.647Z,13.20
2023-03-17T16:44:08.153Z,13.10
2023-03-17T16:46:36.195Z,13.10
2023-03-17T16:49:05.491Z,13.00
2023-03-17T16:51:32.537Z,12.90
2023-03-17T16:53:59.762Z,13.00
2023-03-17T16:56:27.975Z,12.90
2023-03-17T16:58:55.206Z,12.90
2023-03-17T17:01:27.495Z,12.90
2023-03-17T17:03:55.702Z,12.90
2023-03-17T17:06:26.017Z,12.80
2023-03-17T17:08:54.840Z,12.80
2023-03-17T17:11:22.390Z,12.80
2023-03-17T17:13:50.183Z,12.70
2023-03-17T17:16:33.408Z,12.70
2023-03-17T17:19:02.719Z,12.70
2023-03-17T17:21:33.973Z,12.70
2023-03-17T17:24:01.336Z,12.70
2023-03-17T17:26:34.407Z,12.60
2023-03-17T17:29:04.566Z,12.70
2023-03-17T17:31:34.738Z,12.60
2023-03-17T17:34:01.799Z,12.50
2023-03-17T17:36:31.600Z,12.50
2023-03-17T17:38:59.233Z,12.50
2023-03-17T17:41:26.606Z,12.40
2023-03-17T17:43:53.896Z,12.40
2023-03-17T17:46:24.337Z,12.30
2023-03-17T17:48:51.615Z,12.40
2023-03-17T17:51:18.663Z,12.30
2023-03-17T17:53:45.918Z,12.30
2023-03-17T17:56:18.183Z,12.20
2023-03-17T17:58:51.629Z,12.20
2023-03-17T18:01:22.373Z,12.20
2023-03-17T18:03:49.510Z,12.20
2023-03-17T18:06:18.109Z,12.20
2023-03-17T18:08:45.279Z,12.10
2023-03-17T18:11:15.568Z,12.10
2023-03-17T18:13:43.309Z,12.10
2023-03-17T18:16:20.406Z,12.00
2023-03-17T18:18:53.350Z,12.00
2023-03-17T18:21:20.545Z,11.90
2023-03-17T18:23:48.785Z,11.90
2023-03-17T18:26:17.987Z,12.00
2023-03-17T18:28:51.212Z,11.90
2023-03-17T18:31:27.548Z,11.90
2023-03-17T18:34:14.642Z,11.80
2023-03-17T18:36:46.467Z,11.80
2023-03-17T18:39:16.913Z,11.70
2023-03-17T18:41:48.930Z,11.70
2023-03-17T18:44:16.834Z,11.60
2023-03-17T18:46:48.157Z,11.60
2023-03-17T18:49:17.739Z,11.60
2023-03-17T18:51:44.959Z,11.60
2023-03-17T18:54:12.089Z,11.50
2023-03-17T18:56:39.137Z,11.40
2023-03-17T18:59:06.356Z,11.50
2023-03-17T19:01:33.617Z,11.50
2023-03-17T19:04:00.905Z,11.40
2023-03-17T19:06:27.870Z,11.50
2023-03-17T19:08:55.358Z,11.50
2023-03-17T19:11:23.323Z,11.40
2023-03-17T19:13:52.463Z,11.30
2023-03-17T19:16:31.249Z,11.30
2023-03-17T19:18:59.683Z,11.30
2023-03-17T19:21:27.718Z,11.30
2023-03-17T19:23:55.198Z,11.30
2023-03-17T19:26:24.455Z,11.20
2023-03-17T19:28:51.415Z,11.20
2023-03-17T19:31:18.611Z,11.30
2023-03-17T19:33:45.845Z,11.20
2023-03-17T19:36:14.202Z,11.20
2023-03-17T19:38:44.214Z,11.20
2023-03-17T19:41:11.210Z,11.20
2023-03-17T19:43:41.993Z,11.20
2023-03-17T19:46:12.672Z,11.20
2023-03-17T19:48:40.744Z,11.20
2023-03-17T19:51:08.479Z,11.10
2023-03-17T19:53:37.354Z,11.10
2023-03-17T19:56:08.595Z,11.10
2023-03-17T19:58:36.105Z,11.10
2023-03-17T20:01:07.562Z,11.00
2023-03-17T20:03:39.059Z,11.00
2023-03-17T20:06:06.469Z,11.10
2023-03-17T20:08:36.421Z,11.00
2023-03-17T20:11:06.121Z,11.00
2023-03-17T20:13:37.240Z,10.90
2023-03-17T20:16:07.302Z,11.00
2023-03-17T20:18:42.962Z,10.90
2023-03-17T20:21:16.714Z,10.90
2023-03-17T20:23:43.683Z,10.90
2023-03-17T20:26:10.946Z,10.90
2023-03-17T20:28:39.793Z,10.90
2023-03-17T20:31:08.018Z,10.80
2023-03-17T20:33:35.271Z,10.80
2023-03-17T20:36:03.708Z,10.80
2023-03-17T20:38:35.723Z,10.80
2023-03-17T20:41:17.350Z,10.80
2023-03-17T20:43:46.781Z,10.70
2023-03-17T20:46:32.803Z,10.80
2023-03-17T20:49:03.056Z,10.70
2023-03-17T20:51:30.008Z,10.80
2023-03-17T20:53:58.395Z,10.70
2023-03-17T20:56:26.672Z,10.70
2023-03-17T20:58:54.273Z,10.60
2023-03-17T21:01:23.243Z,10.60
2023-03-17T21:03:52.436Z,10.70
2023-03-17T21:06:20.704Z,10.50
2023-03-17T21:08:47.753Z,10.60
2023-03-17T21:11:20.804Z,10.60
2023-03-17T21:13:47.934Z,10.50
2023-03-17T21:16:30.682Z,10.40
2023-03-17T21:18:57.754Z,10.40
2023-03-17T21:21:28.113Z,10.40
2023-03-17T21:23:56.158Z,10.40
2023-03-17T21:26:24.623Z,10.30
2023-03-17T21:28:52.574Z,10.40
2023-03-17T21:31:19.750Z,10.30
2023-03-17T21:33:50.351Z,10.30
2023-03-17T21:36:19.585Z,10.30
2023-03-17T21:38:53.449Z,10.20
2023-03-17T21:41:38.978Z,10.20
2023-03-17T21:44:08.401Z,10.20
2023-03-17T21:46:35.482Z,10.20
2023-03-17T21:49:02.478Z,10.10
2023-03-17T21:51:30.627Z,10.10
2023-03-17T21:53:58.534Z,10.10
2023-03-17T21:56:25.755Z,10.00
2023-03-17T21:58:53.192Z,10.00
2023-03-17T22:01:23.604Z,10.10
2023-03-17T22:03:52.421Z,10.00
2023-03-17T22:06:21.511Z,9.90
2023-03-17T22:08:50.546Z,9.90
2023-03-17T22:11:19.700Z,9.90
2023-03-17T22:13:50.593Z,9.90
2023-03-17T22:16:19.714Z,9.80
2023-03-17T22:18:49.308Z,9.80
2023-03-17T22:21:21.631Z,9.80
2023-03-17T22:23:51.627Z,9.80
2023-03-17T22:26:21.956Z,9.70
2023-03-17T22:28:52.067Z,9.80
2023-03-17T22:31:28.677Z,9.70
2023-03-17T22:33:59.366Z,9.70
2023-03-17T22:36:28.401Z,9.60
2023-03-17T22:38:59.399Z,9.70
2023-03-17T22:41:29.573Z,9.60
2023-03-17T22:43:57.805Z,9.60
2023-03-17T22:46:25.985Z,9.70
2023-03-17T22:48:56.630Z,9.70
2023-03-17T22:51:26.870Z,9.60
2023-03-17T22:53:55.876Z,9.50
2023-03-17T22:56:24.020Z,9.50
2023-03-17T22:58:54.865Z,9.50
2023-03-17T23:01:27.290Z,9.50
2023-03-17T23:03:55.362Z,9.50
2023-03-17T23:06:26.277Z,9.60
2023-03-17T23:08:53.363Z,9.50
2023-03-17T23:11:26.289Z,9.50
2023-03-17T23:13:55.313Z,9.50
2023-03-17T23:16:23.525Z,9.50
2023-03-17T23:18:51.457Z,9.40
2023-03-17T23:21:34.115Z,9.40
2023-03-17T23:24:04.202Z,9.40
2023-03-17T23:26:32.753Z,9.40
2023-03-17T23:28:59.740Z,9.40
2023-03-17T23:31:30.146Z,9.40
2023-03-17T23:34:00.106Z,9.40
2023-03-17T23:36:27.446Z,9.40
2023-03-17T23:38:54.993Z,9.50
2023-03-17T23:41:22.611Z,9.40
2023-03-17T23:43:49.983Z,9.30
2023-03-17T23:46:20.678Z,9.20
2023-03-17T23:48:50.246Z,9.20
2023-03-17T23:51:20.258Z,9.20
2023-03-17T23:53:48.149Z,9.20
2023-03-17T23:56:15.056Z,9.20
2023-03-17T23:58:46.498Z,9.20
